Share

Lismore, New South Wales

Lismore (INSWGOON2) Elev 564 ft | 28.81 °S, 153.35 °E | Change Station

Current weather conditions updated 4 minutes ago

Clear
Clear
67.3 °F
Feels Like 67.3 °F
N
0.0
Wind Variable Wind from NE
Sunrise 6:06 AM
Sunset 5:24 PM
Moon Waning Gibbous

Tomorrow is forecast to be nearly the same temperature as today.

Pressure 30.01 in
Visibility 6.2 miles
Clouds
Dew Point 52 °F
Humidity 59%
Rainfall 0.00 in
Snow Depth Not available.
UV Not available.
Pollen Not available.
Air Quality Not available.
Flu Activity Not available.
METAR YBCG 191100Z AUTO 21001KT 9999 // NCD 17/13 Q1016

More Conditions Fewer Conditions

Pressure 30.01 in
Visibility 6.2 miles
Clouds
Dew Point 52 °F
Humidity 59%
Rainfall 0.00 in
Snow Depth Not available.
UV Not available.
Pollen Not available.
Air Quality Not available.
Flu Activity Not available.
METAR YBCG 191100Z AUTO 21001KT 9999 // NCD 17/13 Q1016

More Conditions Fewer Conditions

10-Day Weather Forecast

Almanac

Astronomy

Apr. 19, 2014 Rise Set
Actual Time 6:06 AM EST 5:24 PM EST
Civil Twilight 5:42 AM EST 5:48 PM EST
Nautical Twilight 5:14 AM EST 6:16 PM EST
Astronomical Twilight 4:47 AM EST 6:43 PM EST
Moon 8:37 PM EST 9:37 AM EST
Length of Visible Light 12h 06m
Length of Day
11h 18m
Tomorrow will be 1m 34s shorter.
Waning Gibbous, 80% of the Moon is Illuminated
Today
Waning Gibbous
Apr 22
Last Quarter
Apr 29
New
May 6
First Quarter
May 14
Full

Yesterday's Extremes

Country Highs Country Lows

Community

  • Bleeding Hearts
    Bleeding Hearts
  • Sunset Silhouettes
    Sunset Silhouettes
  • FL sunset Perico Isle
    FL sunset Perico Isle
  • Cloudy spring view
    Cloudy spring view
  • Old barn
    Old barn

WunderPhotos

Upload Photos

1,702,682 photos uploaded!

WunderBlogs® & News

Nearby

Snow Depth

Not available.

Coastal Water Temperatures

Place Temperature
No Stations Reporting

Earthquake Activity

City Distance Mag. Time & Date
No recent earthquake activity has been reported nearby.
Minimum magnitude displayed is 2.5.

Nearby Weather Stations

Station Location Temp. Dew Point Humidity Wind Precip. Elev Updated Type
Lismore, Goonellabah 67.3 °F 52 °F 59% NE  at  0.0 mph 0.00 in / hr 564 ft 9:00 PM EST Normal
McLeans Ridges 65.5 °F 43 °F 44% North  at  0.0 mph 0.00 in / hr 410 ft 8:55 PM EST Normal
Newrybar, Newrybar 68.2 °F 52 °F 56% West  at  0.0 mph 0.00 in / hr 489 ft 9:00 PM EST Normal
Ballina, Ballina 64.4 °F 56 °F 74% North  at  1.0 mph 0.00 in / hr 20 ft 9:05 PM EST Rapid Fire

Show More Stations Show Fewer Stations

What do you think?

We're not finished. Please let us know what you like, what you don't like, and what you are still missing.